sensor_id;sensor_type;location;lat;lon;timestamp;pressure;altitude;pressure_sealevel;temperature;humidity
72892;BME280;61032;50.782;6.818;2023-05-28T00:00:24;100873.31;;;14.32;63.97
72892;BME280;61032;50.782;6.818;2023-05-28T00:01:26;100878.81;;;14.20;64.72
72892;BME280;61032;50.782;6.818;2023-05-28T00:02:27;100880.91;;;14.23;64.59
72892;BME280;61032;50.782;6.818;2023-05-28T00:03:27;100875.13;;;14.16;64.37
72892;BME280;61032;50.782;6.818;2023-05-28T00:04:27;100873.09;;;14.13;64.80
72892;BME280;61032;50.782;6.818;2023-05-28T00:05:28;100869.13;;;14.14;64.92
72892;BME280;61032;50.782;6.818;2023-05-28T00:06:31;100860.28;;;14.21;64.47
72892;BME280;61032;50.782;6.818;2023-05-28T00:07:32;100868.34;;;14.26;64.50
72892;BME280;61032;50.782;6.818;2023-05-28T00:08:32;100877.22;;;14.31;64.24
72892;BME280;61032;50.782;6.818;2023-05-28T00:09:33;100868.34;;;14.26;64.16
72892;BME280;61032;50.782;6.818;2023-05-28T00:10:33;100865.13;;;14.24;64.14
72892;BME280;61032;50.782;6.818;2023-05-28T00:11:33;100866.50;;;14.18;64.32
72892;BME280;61032;50.782;6.818;2023-05-28T00:12:34;100865.00;;;14.20;64.33
72892;BME280;61032;50.782;6.818;2023-05-28T00:13:34;100863.16;;;14.24;64.24
72892;BME280;61032;50.782;6.818;2023-05-28T00:14:34;100869.94;;;14.15;64.11
72892;BME280;61032;50.782;6.818;2023-05-28T00:15:35;100862.91;;;14.17;64.34
72892;BME280;61032;50.782;6.818;2023-05-28T00:16:37;100867.28;;;14.18;64.22
72892;BME280;61032;50.782;6.818;2023-05-28T00:17:37;100868.78;;;14.16;64.04
72892;BME280;61032;50.782;6.818;2023-05-28T00:18:38;100865.69;;;14.17;63.83
72892;BME280;61032;50.782;6.818;2023-05-28T00:19:41;100864.53;;;14.18;63.85
72892;BME280;61032;50.782;6.818;2023-05-28T00:20:41;100859.69;;;14.15;64.04
72892;BME280;61032;50.782;6.818;2023-05-28T00:21:42;100867.56;;;14.13;63.97
72892;BME280;61032;50.782;6.818;2023-05-28T00:22:42;100864.66;;;14.09;64.12
72892;BME280;61032;50.782;6.818;2023-05-28T00:23:44;100864.88;;;14.04;64.44
72892;BME280;61032;50.782;6.818;2023-05-28T00:24:45;100859.69;;;14.03;64.11
72892;BME280;61032;50.782;6.818;2023-05-28T00:25:45;100855.88;;;13.95;63.85
72892;BME280;61032;50.782;6.818;2023-05-28T00:26:45;100861.75;;;13.94;64.45
72892;BME280;61032;50.782;6.818;2023-05-28T00:27:46;100864.75;;;13.89;64.53
72892;BME280;61032;50.782;6.818;2023-05-28T00:28:46;100867.47;;;13.76;65.07
72892;BME280;61032;50.782;6.818;2023-05-28T00:29:46;100857.38;;;13.81;65.15
72892;BME280;61032;50.782;6.818;2023-05-28T00:30:47;100857.84;;;13.83;65.11
72892;BME280;61032;50.782;6.818;2023-05-28T00:31:47;100853.56;;;13.85;65.02
72892;BME280;61032;50.782;6.818;2023-05-28T00:32:47;100856.69;;;13.84;65.01
72892;BME280;61032;50.782;6.818;2023-05-28T00:33:51;100854.84;;;13.88;64.95
72892;BME280;61032;50.782;6.818;2023-05-28T00:34:51;100857.97;;;13.86;64.98
72892;BME280;61032;50.782;6.818;2023-05-28T00:35:52;100857.84;;;13.83;64.92
72892;BME280;61032;50.782;6.818;2023-05-28T00:36:56;100858.75;;;13.87;65.03
72892;BME280;61032;50.782;6.818;2023-05-28T00:37:56;100855.19;;;13.86;64.80
72892;BME280;61032;50.782;6.818;2023-05-28T00:38:56;100856.00;;;13.87;64.98
72892;BME280;61032;50.782;6.818;2023-05-28T00:39:57;100854.72;;;13.84;64.93
72892;BME280;61032;50.782;6.818;2023-05-28T00:40:57;100854.47;;;13.77;64.92
72892;BME280;61032;50.782;6.818;2023-05-28T00:42:02;100854.00;;;13.63;65.46
72892;BME280;61032;50.782;6.818;2023-05-28T00:43:02;100859.84;;;13.61;65.90
72892;BME280;61032;50.782;6.818;2023-05-28T00:44:03;100852.03;;;13.63;65.68
72892;BME280;61032;50.782;6.818;2023-05-28T00:45:04;100855.34;;;13.57;65.57
72892;BME280;61032;50.782;6.818;2023-05-28T00:46:06;100852.47;;;13.53;65.66
72892;BME280;61032;50.782;6.818;2023-05-28T00:47:06;100851.56;;;13.49;66.03
72892;BME280;61032;50.782;6.818;2023-05-28T00:48:07;100850.03;;;13.52;66.16
72892;BME280;61032;50.782;6.818;2023-05-28T00:49:09;100853.59;;;13.40;65.84
72892;BME280;61032;50.782;6.818;2023-05-28T00:50:10;100849.53;;;13.37;66.22
72892;BME280;61032;50.782;6.818;2023-05-28T00:51:13;100851.69;;;13.32;66.51
72892;BME280;61032;50.782;6.818;2023-05-28T00:52:14;100853.44;;;13.36;66.55
72892;BME280;61032;50.782;6.818;2023-05-28T00:53:15;100856.09;;;13.33;66.66
72892;BME280;61032;50.782;6.818;2023-05-28T00:54:16;100846.88;;;13.29;66.83
72892;BME280;61032;50.782;6.818;2023-05-28T00:55:17;100852.28;;;13.25;66.75
72892;BME280;61032;50.782;6.818;2023-05-28T00:56:17;100855.72;;;13.22;66.85
72892;BME280;61032;50.782;6.818;2023-05-28T00:57:18;100847.75;;;13.21;67.05
72892;BME280;61032;50.782;6.818;2023-05-28T00:58:22;100852.03;;;13.09;67.27
72892;BME280;61032;50.782;6.818;2023-05-28T00:59:25;100851.38;;;13.13;67.31
72892;BME280;61032;50.782;6.818;2023-05-28T01:00:25;100857.47;;;13.06;67.33
72892;BME280;61032;50.782;6.818;2023-05-28T01:01:26;100857.78;;;13.04;67.54
72892;BME280;61032;50.782;6.818;2023-05-28T01:02:27;100860.06;;;13.02;67.56
72892;BME280;61032;50.782;6.818;2023-05-28T01:03:27;100857.78;;;13.04;67.76
72892;BME280;61032;50.782;6.818;2023-05-28T01:04:27;100848.84;;;13.07;67.86
72892;BME280;61032;50.782;6.818;2023-05-28T01:05:37;100853.31;;;13.12;67.48
72892;BME280;61032;50.782;6.818;2023-05-28T01:06:37;100860.63;;;13.17;67.48
72892;BME280;61032;50.782;6.818;2023-05-28T01:07:38;100853.31;;;13.12;67.03
72892;BME280;61032;50.782;6.818;2023-05-28T01:08:40;100856.78;;;13.09;67.39
72892;BME280;61032;50.782;6.818;2023-05-28T01:09:40;100857.47;;;13.06;67.33
72892;BME280;61032;50.782;6.818;2023-05-28T01:10:41;100854.81;;;13.09;67.14
72892;BME280;61032;50.782;6.818;2023-05-28T01:11:43;100850.22;;;13.14;67.05
72892;BME280;61032;50.782;6.818;2023-05-28T01:12:44;100847.16;;;13.15;66.54
72892;BME280;61032;50.782;6.818;2023-05-28T01:13:46;100847.97;;;13.16;66.58
72892;BME280;61032;50.782;6.818;2023-05-28T01:14:47;100842.91;;;13.18;66.45
72892;BME280;61032;50.782;6.818;2023-05-28T01:15:48;100844.06;;;13.17;66.90
72892;BME280;61032;50.782;6.818;2023-05-28T01:16:48;100842.44;;;13.16;66.43
72892;BME280;61032;50.782;6.818;2023-05-28T01:17:49;100849.59;;;13.17;66.21
72892;BME280;61032;50.782;6.818;2023-05-28T01:18:53;100838.88;;;13.15;66.51
72892;BME280;61032;50.782;6.818;2023-05-28T01:19:55;100842.75;;;13.14;66.19
72892;BME280;61032;50.782;6.818;2023-05-28T01:20:55;100843.56;;;13.15;66.40
72892;BME280;61032;50.782;6.818;2023-05-28T01:22:05;100851.84;;;13.15;66.28
72892;BME280;61032;50.782;6.818;2023-05-28T01:23:06;100840.00;;;13.14;66.26
72892;BME280;61032;50.782;6.818;2023-05-28T01:24:11;100837.56;;;13.13;66.24
72892;BME280;61032;50.782;6.818;2023-05-28T01:25:13;100837.56;;;13.13;66.08
72892;BME280;61032;50.782;6.818;2023-05-28T01:26:16;100840.00;;;13.14;66.23
72892;BME280;61032;50.782;6.818;2023-05-28T01:27:16;100837.47;;;13.09;66.18
72892;BME280;61032;50.782;6.818;2023-05-28T01:28:16;100844.22;;;13.12;66.07
72892;BME280;61032;50.782;6.818;2023-05-28T01:29:17;100848.50;;;13.09;66.18
72892;BME280;61032;50.782;6.818;2023-05-28T01:30:18;100839.84;;;13.11;65.94
72892;BME280;61032;50.782;6.818;2023-05-28T01:31:18;100839.63;;;13.03;66.08
72892;BME280;61032;50.782;6.818;2023-05-28T01:32:18;100841.91;;;13.01;66.66
72892;BME280;61032;50.782;6.818;2023-05-28T01:33:20;100835.44;;;12.97;66.38
72892;BME280;61032;50.782;6.818;2023-05-28T01:34:24;100840.97;;;12.97;66.67
72892;BME280;61032;50.782;6.818;2023-05-28T01:35:25;100840.69;;;12.90;66.44
72892;BME280;61032;50.782;6.818;2023-05-28T01:36:30;100835.38;;;12.85;66.81
72892;BME280;61032;50.782;6.818;2023-05-28T01:37:33;100835.72;;;12.84;67.05
72892;BME280;61032;50.782;6.818;2023-05-28T01:38:35;100833.31;;;12.82;67.03
72892;BME280;61032;50.782;6.818;2023-05-28T01:39:44;100830.53;;;12.82;67.34
72892;BME280;61032;50.782;6.818;2023-05-28T01:40:48;100832.63;;;12.85;66.95
72892;BME280;61032;50.782;6.818;2023-05-28T01:41:49;100842.25;;;12.79;66.79
72892;BME280;61032;50.782;6.818;2023-05-28T01:42:51;100838.00;;;12.82;67.00
72892;BME280;61032;50.782;6.818;2023-05-28T01:43:55;100839.78;;;12.86;66.83
72892;BME280;61032;50.782;6.818;2023-05-28T01:44:57;100835.16;;;12.90;66.59
72892;BME280;61032;50.782;6.818;2023-05-28T01:45:58;100837.91;;;12.90;66.85
72892;BME280;61032;50.782;6.818;2023-05-28T01:46:58;100840.25;;;12.88;66.66
72892;BME280;61032;50.782;6.818;2023-05-28T01:47:59;100839.88;;;12.90;66.38
72892;BME280;61032;50.782;6.818;2023-05-28T01:49:00;100835.88;;;12.87;66.56
72892;BME280;61032;50.782;6.818;2023-05-28T01:50:02;100842.78;;;12.93;66.45
72892;BME280;61032;50.782;6.818;2023-05-28T01:51:03;100839.53;;;12.91;66.44
72892;BME280;61032;50.782;6.818;2023-05-28T01:52:04;100845.53;;;12.93;66.39
72892;BME280;61032;50.782;6.818;2023-05-28T01:53:05;100843.00;;;12.88;66.56
72892;BME280;61032;50.782;6.818;2023-05-28T01:54:06;100840.56;;;12.87;66.26
72892;BME280;61032;50.782;6.818;2023-05-28T01:55:07;100847.56;;;12.84;66.36
72892;BME280;61032;50.782;6.818;2023-05-28T01:56:08;100838.63;;;12.87;66.48
72892;BME280;61032;50.782;6.818;2023-05-28T01:57:09;100847.47;;;12.93;66.26
72892;BME280;61032;50.782;6.818;2023-05-28T01:58:10;100842.78;;;12.93;66.36
72892;BME280;61032;50.782;6.818;2023-05-28T01:59:11;100843.34;;;12.87;66.50
72892;BME280;61032;50.782;6.818;2023-05-28T02:00:12;100839.78;;;12.86;66.22
72892;BME280;61032;50.782;6.818;2023-05-28T02:01:19;100845.28;;;12.86;66.34
72892;BME280;61032;50.782;6.818;2023-05-28T02:02:21;100846.28;;;12.82;66.39
72892;BME280;61032;50.782;6.818;2023-05-28T02:03:26;100845.47;;;12.81;66.58
72892;BME280;61032;50.782;6.818;2023-05-28T02:04:26;100846.75;;;12.84;66.49
72892;BME280;61032;50.782;6.818;2023-05-28T02:05:30;100846.00;;;12.74;66.73
72892;BME280;61032;50.782;6.818;2023-05-28T02:06:34;100844.25;;;12.70;67.14
72892;BME280;61032;50.782;6.818;2023-05-28T02:07:34;100841.25;;;12.63;67.43
72892;BME280;61032;50.782;6.818;2023-05-28T02:08:35;100837.53;;;12.59;67.35
72892;BME280;61032;50.782;6.818;2023-05-28T02:09:35;100828.97;;;12.52;67.43
72892;BME280;61032;50.782;6.818;2023-05-28T02:10:35;100836.78;;;12.50;67.52
72892;BME280;61032;50.782;6.818;2023-05-28T02:11:36;100835.84;;;12.46;67.62
72892;BME280;61032;50.782;6.818;2023-05-28T02:12:36;100832.06;;;12.50;68.02
72892;BME280;61032;50.782;6.818;2023-05-28T02:13:36;100837.72;;;12.54;67.91
72892;BME280;61032;50.782;6.818;2023-05-28T02:14:39;100840.00;;;12.52;67.90
72892;BME280;61032;50.782;6.818;2023-05-28T02:15:39;100828.91;;;12.39;68.15
72892;BME280;61032;50.782;6.818;2023-05-28T02:16:41;100833.28;;;12.41;68.36
72892;BME280;61032;50.782;6.818;2023-05-28T02:17:42;100835.22;;;12.40;68.57
72892;BME280;61032;50.782;6.818;2023-05-28T02:18:44;100823.06;;;12.41;68.26
72892;BME280;61032;50.782;6.818;2023-05-28T02:19:45;100826.28;;;12.43;68.17
72892;BME280;61032;50.782;6.818;2023-05-28T02:20:45;100823.19;;;12.45;68.44
72892;BME280;61032;50.782;6.818;2023-05-28T02:21:46;100827.09;;;12.44;68.16
72892;BME280;61032;50.782;6.818;2023-05-28T02:22:47;100828.44;;;12.37;68.48
72892;BME280;61032;50.782;6.818;2023-05-28T02:23:48;100828.22;;;12.22;68.80
72892;BME280;61032;50.782;6.818;2023-05-28T02:24:49;100823.50;;;12.22;69.08
72892;BME280;61032;50.782;6.818;2023-05-28T02:25:49;100826.78;;;12.16;69.48
72892;BME280;61032;50.782;6.818;2023-05-28T02:26:50;100821.41;;;12.19;69.31
72892;BME280;61032;50.782;6.818;2023-05-28T02:27:51;100824.66;;;12.21;69.37
72892;BME280;61032;50.782;6.818;2023-05-28T02:28:51;100821.41;;;12.19;69.18
72892;BME280;61032;50.782;6.818;2023-05-28T02:29:52;100822.38;;;12.23;69.10
72892;BME280;61032;50.782;6.818;2023-05-28T02:30:52;100816.84;;;12.23;69.12
72892;BME280;61032;50.782;6.818;2023-05-28T02:31:53;100822.72;;;12.13;68.80
72892;BME280;61032;50.782;6.818;2023-05-28T02:32:53;100815.28;;;12.14;69.24
72892;BME280;61032;50.782;6.818;2023-05-28T02:33:55;100816.47;;;12.04;69.53
72892;BME280;61032;50.782;6.818;2023-05-28T02:34:55;100819.59;;;11.94;69.74
72892;BME280;61032;50.782;6.818;2023-05-28T02:35:55;100812.47;;;11.93;69.97
72892;BME280;61032;50.782;6.818;2023-05-28T02:36:56;100811.50;;;11.89;69.96
72892;BME280;61032;50.782;6.818;2023-05-28T02:37:56;100814.09;;;11.85;70.34
72892;BME280;61032;50.782;6.818;2023-05-28T02:38:56;100819.97;;;11.84;69.84
72892;BME280;61032;50.782;6.818;2023-05-28T02:39:57;100818.69;;;11.81;70.18
72892;BME280;61032;50.782;6.818;2023-05-28T02:40:57;100816.41;;;11.83;70.30
72892;BME280;61032;50.782;6.818;2023-05-28T02:41:57;100821.91;;;11.83;70.61
72892;BME280;61032;50.782;6.818;2023-05-28T02:42:58;100821.56;;;11.85;70.23
72892;BME280;61032;50.782;6.818;2023-05-28T02:43:58;100820.31;;;11.82;70.88
72892;BME280;61032;50.782;6.818;2023-05-28T02:44:59;100815.13;;;11.81;70.54
72892;BME280;61032;50.782;6.818;2023-05-28T02:45:59;100823.06;;;11.82;70.29
72892;BME280;61032;50.782;6.818;2023-05-28T02:47:00;100819.66;;;11.77;70.07
72892;BME280;61032;50.782;6.818;2023-05-28T02:48:00;100820.47;;;11.68;70.32
72892;BME280;61032;50.782;6.818;2023-05-28T02:49:01;100821.44;;;11.64;70.68
72892;BME280;61032;50.782;6.818;2023-05-28T02:50:02;100816.56;;;11.69;70.46
72892;BME280;61032;50.782;6.818;2023-05-28T02:51:02;100823.03;;;11.74;70.20
72892;BME280;61032;50.782;6.818;2023-05-28T02:52:03;100819.50;;;11.64;69.91
72892;BME280;61032;50.782;6.818;2023-05-28T02:53:04;100817.56;;;11.65;71.08
72892;BME280;61032;50.782;6.818;2023-05-28T02:54:05;100821.59;;;11.67;70.43
72892;BME280;61032;50.782;6.818;2023-05-28T02:55:06;100824.03;;;11.69;70.32
72892;BME280;61032;50.782;6.818;2023-05-28T02:56:06;100815.16;;;11.63;70.67
72892;BME280;61032;50.782;6.818;2023-05-28T02:57:07;100813.53;;;11.62;70.46
72892;BME280;61032;50.782;6.818;2023-05-28T02:58:07;100817.44;;;11.61;70.26
72892;BME280;61032;50.782;6.818;2023-05-28T02:59:07;100822.25;;;11.64;70.50
72892;BME280;61032;50.782;6.818;2023-05-28T03:00:08;100817.56;;;11.65;70.55
72892;BME280;61032;50.782;6.818;2023-05-28T03:01:09;100817.44;;;11.61;70.47
72892;BME280;61032;50.782;6.818;2023-05-28T03:02:09;100817.44;;;11.61;70.07
72892;BME280;61032;50.782;6.818;2023-05-28T03:03:10;100816.75;;;11.64;69.82
72892;BME280;61032;50.782;6.818;2023-05-28T03:04:10;100810.91;;;11.66;70.10
72892;BME280;61032;50.782;6.818;2023-05-28T03:05:10;100819.66;;;11.68;69.74
72892;BME280;61032;50.782;6.818;2023-05-28T03:06:11;100822.41;;;11.68;69.36
72892;BME280;61032;50.782;6.818;2023-05-28T03:07:11;100819.19;;;11.66;69.23
72892;BME280;61032;50.782;6.818;2023-05-28T03:08:11;100822.09;;;11.69;69.94
72892;BME280;61032;50.782;6.818;2023-05-28T03:09:12;100813.34;;;11.67;69.42
72892;BME280;61032;50.782;6.818;2023-05-28T03:10:12;100821.91;;;11.75;69.13
72892;BME280;61032;50.782;6.818;2023-05-28T03:11:12;100822.44;;;11.77;69.37
72892;BME280;61032;50.782;6.818;2023-05-28T03:12:13;100822.56;;;11.71;69.08
72892;BME280;61032;50.782;6.818;2023-05-28T03:13:13;100818.38;;;11.65;68.91
72892;BME280;61032;50.782;6.818;2023-05-28T03:14:13;100818.91;;;11.59;69.52
72892;BME280;61032;50.782;6.818;2023-05-28T03:15:14;100822.31;;;11.56;69.91
72892;BME280;61032;50.782;6.818;2023-05-28T03:16:14;100824.56;;;11.54;69.84
72892;BME280;61032;50.782;6.818;2023-05-28T03:17:14;100820.53;;;11.51;69.98
72892;BME280;61032;50.782;6.818;2023-05-28T03:18:15;100820.53;;;11.51;70.29
72892;BME280;61032;50.782;6.818;2023-05-28T03:19:15;100822.81;;;11.49;70.00
72892;BME280;61032;50.782;6.818;2023-05-28T03:20:16;100821.00;;;11.53;70.09
72892;BME280;61032;50.782;6.818;2023-05-28T03:21:16;100818.25;;;11.53;70.01
72892;BME280;61032;50.782;6.818;2023-05-28T03:22:16;100820.69;;;11.46;70.08
72892;BME280;61032;50.782;6.818;2023-05-28T03:23:17;100818.44;;;11.48;70.40
72892;BME280;61032;50.782;6.818;2023-05-28T03:24:17;100818.25;;;11.53;70.14
72892;BME280;61032;50.782;6.818;2023-05-28T03:25:18;100825.53;;;11.58;69.68
72892;BME280;61032;50.782;6.818;2023-05-28T03:26:18;100824.72;;;11.57;69.58
72892;BME280;61032;50.782;6.818;2023-05-28T03:27:19;100827.00;;;11.55;69.83
72892;BME280;61032;50.782;6.818;2023-05-28T03:28:19;100826.53;;;11.53;69.58
72892;BME280;61032;50.782;6.818;2023-05-28T03:29:20;100821.81;;;11.54;69.88
72892;BME280;61032;50.782;6.818;2023-05-28T03:30:20;100815.84;;;11.52;69.46
72892;BME280;61032;50.782;6.818;2023-05-28T03:31:27;100828.28;;;11.58;69.73
72892;BME280;61032;50.782;6.818;2023-05-28T03:32:29;100826.03;;;11.60;69.25
72892;BME280;61032;50.782;6.818;2023-05-28T03:33:29;100824.56;;;11.62;69.13
72892;BME280;61032;50.782;6.818;2023-05-28T03:34:30;100818.69;;;11.64;68.86
72892;BME280;61032;50.782;6.818;2023-05-28T03:35:31;100823.22;;;11.68;69.02
72892;BME280;61032;50.782;6.818;2023-05-28T03:36:31;100822.09;;;11.69;68.65
72892;BME280;61032;50.782;6.818;2023-05-28T03:37:32;100819.31;;;11.69;68.15
72892;BME280;61032;50.782;6.818;2023-05-28T03:38:32;100825.19;;;11.77;68.24
72892;BME280;61032;50.782;6.818;2023-05-28T03:39:33;100825.34;;;11.80;68.08
72892;BME280;61032;50.782;6.818;2023-05-28T03:40:33;100819.47;;;11.73;69.05
72892;BME280;61032;50.782;6.818;2023-05-28T03:41:34;100830.69;;;11.77;68.22
72892;BME280;61032;50.782;6.818;2023-05-28T03:42:36;100828.41;;;11.79;68.37
72892;BME280;61032;50.782;6.818;2023-05-28T03:43:36;100835.69;;;11.83;67.90
72892;BME280;61032;50.782;6.818;2023-05-28T03:44:37;100827.22;;;11.88;67.80
72892;BME280;61032;50.782;6.818;2023-05-28T03:45:37;100820.91;;;11.88;67.84
72892;BME280;61032;50.782;6.818;2023-05-28T03:46:38;100832.94;;;11.83;68.05
72892;BME280;61032;50.782;6.818;2023-05-28T03:47:39;100823.38;;;11.81;68.18
72892;BME280;61032;50.782;6.818;2023-05-28T03:48:39;100817.06;;;11.71;68.33
72892;BME280;61032;50.782;6.818;2023-05-28T03:49:39;100823.03;;;11.74;67.84
72892;BME280;61032;50.782;6.818;2023-05-28T03:50:40;100820.94;;;11.70;67.86
72892;BME280;61032;50.782;6.818;2023-05-28T03:51:41;100821.00;;;11.62;68.47
72892;BME280;61032;50.782;6.818;2023-05-28T03:52:41;100824.19;;;11.64;68.56
72892;BME280;61032;50.782;6.818;2023-05-28T03:53:41;100826.47;;;11.70;68.68
72892;BME280;61032;50.782;6.818;2023-05-28T03:54:42;100825.19;;;11.77;67.98
72892;BME280;61032;50.782;6.818;2023-05-28T03:55:42;100822.09;;;11.78;67.63
72892;BME280;61032;50.782;6.818;2023-05-28T03:56:43;100827.59;;;11.78;67.62
72892;BME280;61032;50.782;6.818;2023-05-28T03:57:44;100828.06;;;11.71;67.83
72892;BME280;61032;50.782;6.818;2023-05-28T03:58:45;100822.09;;;11.69;67.92
72892;BME280;61032;50.782;6.818;2023-05-28T03:59:45;100825.22;;;11.59;68.11
72892;BME280;61032;50.782;6.818;2023-05-28T04:00:45;100819.88;;;11.54;68.51
72892;BME280;61032;50.782;6.818;2023-05-28T04:01:46;100823.13;;;11.48;68.77
72892;BME280;61032;50.782;6.818;2023-05-28T04:02:47;100818.75;;;11.47;69.32
72892;BME280;61032;50.782;6.818;2023-05-28T04:03:47;100825.28;;;11.42;68.92
72892;BME280;61032;50.782;6.818;2023-05-28T04:04:47;100825.09;;;11.39;68.65
72892;BME280;61032;50.782;6.818;2023-05-28T04:05:49;100819.94;;;11.37;69.68
72892;BME280;61032;50.782;6.818;2023-05-28T04:06:49;100823.66;;;11.24;69.66
72892;BME280;61032;50.782;6.818;2023-05-28T04:07:49;100816.38;;;11.28;69.96
72892;BME280;61032;50.782;6.818;2023-05-28T04:08:49;100820.75;;;11.29;69.47
72892;BME280;61032;50.782;6.818;2023-05-28T04:09:50;100821.22;;;11.31;69.50
72892;BME280;61032;50.782;6.818;2023-05-28T04:10:50;100817.81;;;11.34;69.63
72892;BME280;61032;50.782;6.818;2023-05-28T04:11:51;100827.06;;;11.38;69.66
72892;BME280;61032;50.782;6.818;2023-05-28T04:12:52;100826.72;;;11.40;69.57
72892;BME280;61032;50.782;6.818;2023-05-28T04:13:52;100821.34;;;11.43;69.64
72892;BME280;61032;50.782;6.818;2023-05-28T04:14:53;100826.84;;;11.43;69.86
72892;BME280;61032;50.782;6.818;2023-05-28T04:15:53;100826.56;;;11.36;69.96
72892;BME280;61032;50.782;6.818;2023-05-28T04:16:54;100832.38;;;11.43;69.63
72892;BME280;61032;50.782;6.818;2023-05-28T04:17:54;100830.28;;;11.40;69.62
72892;BME280;61032;50.782;6.818;2023-05-28T04:18:55;100830.63;;;11.39;69.59
72892;BME280;61032;50.782;6.818;2023-05-28T04:19:56;100830.78;;;11.42;69.62
72892;BME280;61032;50.782;6.818;2023-05-28T04:20:57;100831.59;;;11.43;69.58
72892;BME280;61032;50.782;6.818;2023-05-28T04:21:57;100833.03;;;11.40;69.00
72892;BME280;61032;50.782;6.818;2023-05-28T04:22:58;100836.41;;;11.46;69.21
72892;BME280;61032;50.782;6.818;2023-05-28T04:23:58;100827.50;;;11.49;69.01
72892;BME280;61032;50.782;6.818;2023-05-28T04:24:58;100829.44;;;11.48;68.72
72892;BME280;61032;50.782;6.818;2023-05-28T04:25:59;100827.66;;;11.52;68.87
72892;BME280;61032;50.782;6.818;2023-05-28T04:26:59;100833.34;;;11.47;69.00
72892;BME280;61032;50.782;6.818;2023-05-28T04:28:00;100830.88;;;11.54;68.72
72892;BME280;61032;50.782;6.818;2023-05-28T04:29:01;100835.25;;;11.55;68.76
72892;BME280;61032;50.782;6.818;2023-05-28T04:30:02;100830.06;;;11.62;68.61
72892;BME280;61032;50.782;6.818;2023-05-28T04:31:03;100834.88;;;11.65;68.50
72892;BME280;61032;50.782;6.818;2023-05-28T04:32:03;100837.97;;;11.64;68.21
72892;BME280;61032;50.782;6.818;2023-05-28T04:33:05;100836.50;;;11.66;68.42
72892;BME280;61032;50.782;6.818;2023-05-28T04:34:06;100834.88;;;11.65;68.47
72892;BME280;61032;50.782;6.818;2023-05-28T04:35:07;100837.63;;;11.74;67.80
72892;BME280;61032;50.782;6.818;2023-05-28T04:36:11;100838.13;;;11.67;67.62
72892;BME280;61032;50.782;6.818;2023-05-28T04:37:13;100825.50;;;11.66;68.02
72892;BME280;61032;50.782;6.818;2023-05-28T04:38:14;100828.25;;;11.66;67.91
72892;BME280;61032;50.782;6.818;2023-05-28T04:39:14;100827.91;;;11.68;68.15
72892;BME280;61032;50.782;6.818;2023-05-28T04:40:15;100831.00;;;11.66;68.39
72892;BME280;61032;50.782;6.818;2023-05-28T04:41:15;100831.69;;;11.63;67.71
72892;BME280;61032;50.782;6.818;2023-05-28T04:42:17;100829.91;;;11.59;68.35
72892;BME280;61032;50.782;6.818;2023-05-28T04:43:18;100830.06;;;11.62;68.45
72892;BME280;61032;50.782;6.818;2023-05-28T04:44:18;100835.56;;;11.62;68.46
72892;BME280;61032;50.782;6.818;2023-05-28T04:45:19;100830.34;;;11.69;68.06
72892;BME280;61032;50.782;6.818;2023-05-28T04:46:19;100838.44;;;11.75;68.32
72892;BME280;61032;50.782;6.818;2023-05-28T04:47:19;100837.50;;;11.79;68.21
72892;BME280;61032;50.782;6.818;2023-05-28T04:48:22;100842.13;;;11.87;68.17
72892;BME280;61032;50.782;6.818;2023-05-28T04:49:22;100842.78;;;11.93;67.59
72892;BME280;61032;50.782;6.818;2023-05-28T04:50:23;100840.00;;;11.93;67.71
72892;BME280;61032;50.782;6.818;2023-05-28T04:51:23;100843.91;;;11.92;67.56
72892;BME280;61032;50.782;6.818;2023-05-28T04:52:24;100836.59;;;11.96;67.15
72892;BME280;61032;50.782;6.818;2023-05-28T04:53:24;100840.31;;;12.00;67.38
72892;BME280;61032;50.782;6.818;2023-05-28T04:54:25;100843.72;;;11.97;67.00
72892;BME280;61032;50.782;6.818;2023-05-28T04:55:27;100843.66;;;12.05;67.02
72892;BME280;61032;50.782;6.818;2023-05-28T04:56:28;100841.41;;;12.08;67.07
72892;BME280;61032;50.782;6.818;2023-05-28T04:57:28;100850.94;;;12.10;66.83
72892;BME280;61032;50.782;6.818;2023-05-28T04:58:28;100844.78;;;12.13;66.49
72892;BME280;61032;50.782;6.818;2023-05-28T04:59:29;100844.13;;;12.16;66.50
72892;BME280;61032;50.782;6.818;2023-05-28T05:00:29;100852.06;;;12.18;66.75
72892;BME280;61032;50.782;6.818;2023-05-28T05:01:31;100852.53;;;12.20;66.54
72892;BME280;61032;50.782;6.818;2023-05-28T05:02:35;100857.06;;;12.24;66.33
72892;BME280;61032;50.782;6.818;2023-05-28T05:03:35;100854.97;;;12.21;66.76
72892;BME280;61032;50.782;6.818;2023-05-28T05:04:35;100857.50;;;12.26;66.53
72892;BME280;61032;50.782;6.818;2023-05-28T05:05:36;100855.72;;;12.30;66.55
72892;BME280;61032;50.782;6.818;2023-05-28T05:06:36;100850.50;;;12.37;66.52
72892;BME280;61032;50.782;6.818;2023-05-28T05:07:37;100857.91;;;12.46;65.93
72892;BME280;61032;50.782;6.818;2023-05-28T05:08:38;100854.88;;;12.59;65.47
72892;BME280;61032;50.782;6.818;2023-05-28T05:09:38;100845.16;;;12.62;65.25
72892;BME280;61032;50.782;6.818;2023-05-28T05:10:39;100848.53;;;12.67;64.94
72892;BME280;61032;50.782;6.818;2023-05-28T05:11:40;100851.06;;;12.72;64.82
72892;BME280;61032;50.782;6.818;2023-05-28T05:12:40;100854.44;;;12.78;65.26
72892;BME280;61032;50.782;6.818;2023-05-28T05:13:40;100852.75;;;12.86;64.76
72892;BME280;61032;50.782;6.818;2023-05-28T05:14:41;100855.19;;;12.87;64.57
72892;BME280;61032;50.782;6.818;2023-05-28T05:15:41;100845.34;;;12.98;64.51
72892;BME280;61032;50.782;6.818;2023-05-28T05:16:42;100853.31;;;13.12;63.80
72892;BME280;61032;50.782;6.818;2023-05-28T05:17:42;100847.47;;;13.14;63.69
72892;BME280;61032;50.782;6.818;2023-05-28T05:18:43;100853.28;;;13.21;63.44